Time;durP1;ratioP1;P1;durP2;ratioP2;P2;SDS_P1;SDS_P2;PMS_P1;PMS_P2;Temp;Humidity;BMP_temperature;BMP_pressure;BME280_temperature;BME280_humidity;BME280_pressure;Samples;Min_cycle;Max_cycle;Signal;HPM_P1;HPM_P2
2022/03/01 00:00:10;;;;;;;20.85;16.58;;;;;;;0.61;76.47;102749.97;1043916;28;20299;-76
2022/03/01 00:00:45;;;;;;;19.23;14.68;;;;;;;0.53;76.41;102739.13;1040333;28;20338;-76
2022/03/01 00:01:17;;;;;;;19.40;14.65;;;;;;;0.63;76.26;102742.00;1037441;28;20296;-76
2022/03/01 00:01:48;;;;;;;18.77;15.65;;;;;;;0.68;75.93;102745.97;1041151;28;20299;-76
2022/03/01 00:02:20;;;;;;;17.48;15.57;;;;;;;0.63;76.26;102739.38;1044405;28;20306;-77
2022/03/01 00:02:52;;;;;;;21.42;16.33;;;;;;;0.56;75.86;102738.97;1042026;28;20743;-76
2022/03/01 00:03:24;;;;;;;18.40;16.30;;;;;;;0.48;76.20;102742.06;1044067;28;20809;-76
2022/03/01 00:03:56;;;;;;;21.10;15.98;;;;;;;0.46;76.61;102743.13;1040183;28;20404;-74
2022/03/01 00:04:27;;;;;;;20.63;15.88;;;;;;;0.44;76.77;102743.22;1039790;28;20307;-76
2022/03/01 00:04:59;;;;;;;20.70;15.18;;;;;;;0.46;77.11;102740.50;1036438;28;20304;-76
2022/03/01 00:05:31;;;;;;;23.88;15.77;;;;;;;0.47;77.04;102740.41;1040559;28;20304;-76
2022/03/01 00:06:03;;;;;;;19.95;16.02;;;;;;;0.48;76.85;102742.06;1044317;28;20287;-76
2022/03/01 00:06:34;;;;;;;18.23;16.30;;;;;;;0.42;76.72;102737.25;1040504;28;20302;-76
2022/03/01 00:07:07;;;;;;;16.83;14.80;;;;;;;0.40;77.16;102740.94;1044029;28;20307;-76
2022/03/01 00:07:39;;;;;;;17.35;15.38;;;;;;;0.38;77.40;102737.56;1045428;28;20279;-76
2022/03/01 00:08:10;;;;;;;21.38;15.32;;;;;;;0.33;77.14;102747.53;1044195;28;20307;-76
2022/03/01 00:08:42;;;;;;;20.13;15.88;;;;;;;0.31;77.66;102747.63;1040857;28;20333;-77
2022/03/01 00:09:13;;;;;;;19.80;16.58;;;;;;;0.22;78.01;102751.69;1041656;28;20300;-74
2022/03/01 00:09:45;;;;;;;18.33;15.02;;;;;;;0.17;78.27;102753.78;1044088;28;20341;-74
2022/03/01 00:10:16;;;;;;;18.52;14.80;;;;;;;0.16;78.54;102754.72;1040689;28;20304;-76
2022/03/01 00:10:48;;;;;;;16.75;14.95;;;;;;;0.11;79.07;102754.19;1040494;28;20303;-76
2022/03/01 00:11:23;;;;;;;17.02;15.10;;;;;;;0.20;78.63;102748.31;1041482;28;20304;-76
2022/03/01 00:11:54;;;;;;;18.98;15.75;;;;;;;0.26;78.55;102745.28;1044307;28;20300;-76
2022/03/01 00:12:26;;;;;;;20.25;15.75;;;;;;;0.16;78.54;102754.72;1045492;28;20316;-76
2022/03/01 00:12:57;;;;;;;21.83;15.73;;;;;;;0.16;78.37;102746.03;1044815;28;20306;-75
2022/03/01 00:13:29;;;;;;;20.35;16.13;;;;;;;0.22;78.20;102750.84;1045152;28;20292;-75
2022/03/01 00:14:00;;;;;;;21.10;15.35;;;;;;;0.27;78.12;102754.00;1044351;28;20299;-75
2022/03/01 00:14:34;;;;;;;22.00;16.52;;;;;;;0.23;77.99;102742.88;1040581;28;20304;-76
2022/03/01 00:15:07;;;;;;;21.25;16.67;;;;;;;0.21;77.77;102743.94;1041218;28;20680;-76
2022/03/01 00:15:38;;;;;;;23.30;16.63;;;;;;;0.19;77.99;102751.06;1037507;28;20721;-76
2022/03/01 00:16:10;;;;;;;17.80;14.88;;;;;;;0.19;78.15;102746.66;1041346;28;20315;-75
2022/03/01 00:16:42;;;;;;;17.27;14.82;;;;;;;0.18;78.01;102749.38;1040877;28;20298;-76
2022/03/01 00:17:13;;;;;;;19.70;14.88;;;;;;;0.16;78.21;102746.03;1041010;28;20300;-76
2022/03/01 00:17:45;;;;;;;21.65;16.10;;;;;;;0.19;78.19;102745.81;1044483;28;20307;-75
2022/03/01 00:18:16;;;;;;;20.48;15.50;;;;;;;0.15;78.17;102744.34;1045060;28;20674;-75
2022/03/01 00:18:48;;;;;;;17.02;14.90;;;;;;;0.14;78.22;102740.03;1045297;28;20306;-75
2022/03/01 00:19:20;;;;;;;18.27;14.90;;;;;;;0.16;78.42;102746.84;1041051;28;20641;-76
2022/03/01 00:19:51;;;;;;;19.80;15.27;;;;;;;0.17;78.54;102743.28;1041103;28;20674;-75
2022/03/01 00:20:23;;;;;;;17.55;14.55;;;;;;;0.16;78.11;102744.25;1040846;28;20355;-76
2022/03/01 00:20:55;;;;;;;18.77;15.40;;;;;;;0.16;78.53;102746.03;1037022;28;20363;-76
2022/03/01 00:21:28;;;;;;;18.42;15.73;;;;;;;0.20;78.22;102743.09;1036977;28;20300;-76
2022/03/01 00:21:59;;;;;;;18.95;15.40;;;;;;;0.21;78.21;102743.94;1037139;28;20673;-76
2022/03/01 00:22:31;;;;;;;20.38;15.55;;;;;;;0.15;78.56;102750.41;1039570;28;20297;-76
2022/03/01 00:23:02;;;;;;;19.35;16.70;;;;;;;0.13;78.95;102746.22;1046524;28;20307;-76
2022/03/01 00:23:34;;;;;;;19.23;16.10;;;;;;;0.15;78.80;102744.34;1045698;28;20394;-75
2022/03/01 00:24:06;;;;;;;22.25;15.45;;;;;;;0.15;78.55;102744.34;1046048;28;20323;-76
2022/03/01 00:24:38;;;;;;;22.02;16.17;;;;;;;0.11;78.78;102743.72;1041561;28;20295;-75
2022/03/01 00:25:09;;;;;;;18.73;16.73;;;;;;;-0.02;78.92;102743.66;1037463;28;20300;-75
2022/03/01 00:25:41;;;;;;;22.50;14.55;;;;;;;0.01;79.03;102747.88;1037016;28;20676;-77
2022/03/01 00:26:13;;;;;;;17.88;16.02;;;;;;;0.05;79.26;102743.28;1037719;28;21788;-76
2022/03/01 00:26:44;;;;;;;19.88;15.95;;;;;;;-0.01;79.00;102745.34;1042601;28;20288;-75
2022/03/01 00:27:18;;;;;;;17.83;15.57;;;;;;;-0.03;79.26;102741.97;1045679;28;20307;-76
2022/03/01 00:27:50;;;;;;;18.20;15.73;;;;;;;-0.04;79.19;102747.31;1041208;28;20300;-75
2022/03/01 00:28:21;;;;;;;21.58;15.32;;;;;;;-0.09;79.54;102752.03;1041526;28;20283;-76
2022/03/01 00:28:53;;;;;;;20.20;14.88;;;;;;;-0.07;79.67;102744.91;1042357;28;20384;-76
2022/03/01 00:29:25;;;;;;;19.35;15.43;;;;;;;-0.07;79.51;102748.38;1042076;28;20292;-76
2022/03/01 00:29:56;;;;;;;19.38;16.80;;;;;;;-0.09;79.49;102746.78;1046623;28;20284;-76
2022/03/01 00:30:28;;;;;;;18.63;15.90;;;;;;;-0.08;79.56;102749.31;1045352;28;20292;-76
2022/03/01 00:30:59;;;;;;;22.08;16.33;;;;;;;-0.01;79.39;102745.34;1041624;28;20311;-75
2022/03/01 00:31:31;;;;;;;19.05;15.50;;;;;;;-0.03;79.77;102749.00;1041542;28;20359;-76
2022/03/01 00:32:03;;;;;;;17.30;15.27;;;;;;;-0.18;80.52;102753.47;1037902;28;20340;-76
2022/03/01 00:32:34;;;;;;;26.08;16.88;;;;;;;-0.15;80.32;102752.44;1042994;28;20331;-76
2022/03/01 00:33:06;;;;;;;23.70;15.32;;;;;;;-0.11;80.28;102759.16;1045689;28;20300;-76
2022/03/01 00:33:37;;;;;;;16.90;14.80;;;;;;;-0.15;80.16;102757.66;1042388;28;20311;-76
2022/03/01 00:34:09;;;;;;;20.90;16.83;;;;;;;-0.14;80.24;102759.34;1046007;28;20291;-76
2022/03/01 00:34:41;;;;;;;18.38;15.40;;;;;;;-0.05;80.51;102748.25;1041462;28;20311;-77
2022/03/01 00:35:13;;;;;;;21.23;16.33;;;;;;;-0.02;79.69;102751.50;1039253;28;20301;-77
2022/03/01 00:35:44;;;;;;;20.83;16.30;;;;;;;0.02;79.51;102749.56;1042467;28;20379;-76
2022/03/01 00:36:16;;;;;;;21.83;17.27;;;;;;;0.04;79.69;102747.69;1042889;28;20300;-75
2022/03/01 00:36:47;;;;;;;20.23;16.60;;;;;;;0.01;79.29;102753.13;1046539;28;20295;-76
2022/03/01 00:37:19;;;;;;;23.33;16.48;;;;;;;0.03;79.29;102751.25;1046667;28;20303;-76
2022/03/01 00:37:51;;;;;;;18.33;16.40;;;;;;;0.01;79.61;102747.88;1047094;28;20303;-76
2022/03/01 00:38:22;;;;;;;26.83;18.05;;;;;;;0.04;79.49;102749.47;1047187;28;20299;-76
2022/03/01 00:38:54;;;;;;;25.17;17.25;;;;;;;0.04;79.13;102752.91;1044087;28;20299;-76
2022/03/01 00:39:25;;;;;;;18.20;15.75;;;;;;;0.03;79.09;102740.75;1047050;28;20295;-75
2022/03/01 00:39:57;;;;;;;20.63;15.50;;;;;;;0.01;79.44;102747.88;1046131;28;20361;-75
2022/03/01 00:40:28;;;;;;;24.77;15.88;;;;;;;-0.10;79.73;102745.94;1044148;28;20291;-76
2022/03/01 00:41:00;;;;;;;18.30;14.82;;;;;;;-0.07;79.69;102755.38;1045076;28;20849;-77
2022/03/01 00:41:32;;;;;;;19.15;15.48;;;;;;;-0.07;79.70;102752.75;1045479;28;20377;-76
2022/03/01 00:42:04;;;;;;;19.98;16.20;;;;;;;-0.08;79.83;102754.53;1041430;28;20292;-75
2022/03/01 00:42:35;;;;;;;19.45;15.55;;;;;;;-0.08;80.05;102758.94;1037883;28;20297;-76
2022/03/01 00:43:07;;;;;;;19.67;16.02;;;;;;;-0.04;79.96;102755.19;1041922;28;20292;-77
2022/03/01 00:43:39;;;;;;;21.77;16.00;;;;;;;-0.05;79.58;102758.75;1041715;28;20298;-76
2022/03/01 00:44:10;;;;;;;25.50;16.95;;;;;;;-0.06;80.21;102750.03;1045212;28;20299;-77
2022/03/01 00:44:43;;;;;;;18.17;16.15;;;;;;;-0.13;80.39;102758.41;1045009;28;20295;-76
2022/03/01 00:45:14;;;;;;;19.35;17.23;;;;;;;-0.15;80.25;102757.66;1045528;28;20298;-76
2022/03/01 00:45:48;;;;;;;18.38;16.38;;;;;;;-0.22;80.58;102752.00;1044733;28;20306;-75
2022/03/01 00:46:20;;;;;;;18.88;16.20;;;;;;;-0.17;80.65;102764.78;1040568;28;20304;-76
2022/03/01 00:46:51;;;;;;;21.63;17.02;;;;;;;-0.14;80.70;102756.72;1040716;28;20678;-76
2022/03/01 00:47:23;;;;;;;22.42;15.38;;;;;;;-0.16;80.84;102758.59;1041050;28;20314;-76
2022/03/01 00:47:54;;;;;;;19.77;15.48;;;;;;;-0.22;80.62;102759.00;1040546;28;20311;-76
2022/03/01 00:48:26;;;;;;;21.13;15.70;;;;;;;-0.26;80.68;102763.59;1040535;28;20359;-75
2022/03/01 00:48:58;;;;;;;18.13;15.07;;;;;;;-0.34;81.10;102761.47;1040524;28;20656;-77
2022/03/01 00:49:30;;;;;;;19.30;15.45;;;;;;;-0.33;80.97;102759.69;1040837;28;20303;-76
2022/03/01 00:50:02;;;;;;;22.98;16.45;;;;;;;-0.32;81.23;102767.44;1036458;28;20292;-75
2022/03/01 00:50:34;;;;;;;18.25;16.05;;;;;;;-0.33;81.14;102763.13;1032321;28;20297;-76
2022/03/01 00:51:06;;;;;;;19.58;15.43;;;;;;;-0.31;81.43;102769.13;1028734;28;20309;-75
2022/03/01 00:51:37;;;;;;;17.77;15.93;;;;;;;-0.38;81.49;102767.84;1029270;28;20813;-75
2022/03/01 00:52:09;;;;;;;22.63;16.45;;;;;;;-0.44;81.59;102770.00;1036894;28;20371;-75
2022/03/01 00:52:40;;;;;;;23.63;15.68;;;;;;;-0.44;82.02;102768.22;1036669;28;20305;-76
2022/03/01 00:53:12;;;;;;;18.58;16.52;;;;;;;-0.45;81.63;102771.78;1036442;28;20402;-76
2022/03/01 00:53:44;;;;;;;20.02;17.80;;;;;;;-0.42;81.92;102771.59;1040450;28;20287;-76
2022/03/01 00:54:15;;;;;;;20.02;15.63;;;;;;;-0.45;82.41;102776.19;1039981;28;20330;-76
2022/03/01 00:54:49;;;;;;;19.83;16.27;;;;;;;-0.48;82.42;102777.22;1040168;28;20292;-75
2022/03/01 00:55:21;;;;;;;18.05;15.70;;;;;;;-0.58;82.39;102768.25;1044471;28;20303;-76
2022/03/01 00:55:53;;;;;;;19.50;15.75;;;;;;;-0.54;82.41;102772.38;1040087;28;20284;-76
2022/03/01 00:56:24;;;;;;;19.65;16.27;;;;;;;-0.51;82.30;102777.41;1040812;28;20312;-76
2022/03/01 00:56:56;;;;;;;19.20;16.08;;;;;;;-0.58;82.75;102772.63;1044263;28;20299;-76
2022/03/01 00:57:27;;;;;;;19.10;17.08;;;;;;;-0.61;82.89;102771.06;1044310;28;20663;-76
2022/03/01 00:57:59;;;;;;;18.60;15.98;;;;;;;-0.58;82.75;102764.78;1044533;28;20291;-76
2022/03/01 00:58:31;;;;;;;17.65;15.75;;;;;;;-0.57;82.58;102767.31;1044302;28;20311;-75
2022/03/01 00:59:05;;;;;;;23.00;16.40;;;;;;;-0.48;82.36;102771.97;1040392;28;20292;-77
2022/03/01 00:59:37;;;;;;;20.17;16.27;;;;;;;-0.21;81.98;102764.16;1039853;28;20319;-75
2022/03/01 01:00:12;;;;;;;19.88;15.90;;;;;;;-0.20;81.56;102755.34;1039983;28;20311;-76
2022/03/01 01:00:43;;;;;;;21.00;16.98;;;;;;;-0.17;80.94;102755.16;1037615;28;20307;-77
2022/03/01 01:01:15;;;;;;;21.42;16.67;;;;;;;-0.22;80.53;102757.22;1040961;28;20291;-76
2022/03/01 01:01:47;;;;;;;21.55;16.63;;;;;;;-0.25;80.59;102761.81;1039996;28;20299;-75
2022/03/01 01:02:19;;;;;;;19.05;15.70;;;;;;;-0.25;80.71;102751.34;1040755;28;20308;-76
2022/03/01 01:02:51;;;;;;;20.02;17.08;;;;;;;-0.29;80.46;102755.09;1040220;28;20298;-76
2022/03/01 01:03:23;;;;;;;20.95;16.00;;;;;;;-0.31;80.91;102753.41;1036332;28;20296;-76
2022/03/01 01:03:54;;;;;;;19.58;16.15;;;;;;;-0.40;80.70;102751.38;1039998;28;20296;-76
2022/03/01 01:04:26;;;;;;;19.83;16.15;;;;;;;-0.42;80.83;102745.41;1040386;28;20810;-75
2022/03/01 01:04:58;;;;;;;22.23;15.43;;;;;;;-0.45;80.59;102755.25;1038237;28;20296;-76
2022/03/01 01:05:29;;;;;;;20.55;15.55;;;;;;;-0.51;80.72;102745.16;1044019;28;20291;-75
2022/03/01 01:06:01;;;;;;;20.75;16.30;;;;;;;-0.52;81.41;102754.78;1040210;28;20644;-76
2022/03/01 01:06:32;;;;;;;21.00;16.95;;;;;;;-0.51;81.46;102756.47;1040591;28;20367;-76
2022/03/01 01:07:04;;;;;;;19.10;16.50;;;;;;;-0.49;81.56;102749.34;1040113;28;20292;-76
2022/03/01 01:07:36;;;;;;;25.30;17.42;;;;;;;-0.56;81.80;102757.66;1035832;28;20302;-76
2022/03/01 01:08:07;;;;;;;19.85;15.75;;;;;;;-0.64;81.65;102755.53;1036380;28;20299;-75
2022/03/01 01:08:39;;;;;;;21.02;17.80;;;;;;;-0.75;81.88;102758.84;1036158;28;20305;-75
2022/03/01 01:09:14;;;;;;;22.55;16.83;;;;;;;-0.72;82.64;102757.81;1040620;28;20400;-76
2022/03/01 01:09:47;;;;;;;25.60;16.70;;;;;;;-0.66;82.66;102754.81;1044098;28;20294;-75
2022/03/01 01:10:19;;;;;;;22.50;15.95;;;;;;;-0.66;82.40;102762.66;1041158;28;20810;-75
2022/03/01 01:10:51;;;;;;;20.88;15.88;;;;;;;-0.62;82.62;102764.13;1039720;28;20815;-76
2022/03/01 01:11:22;;;;;;;17.25;15.25;;;;;;;-0.74;82.96;102759.69;1035889;28;20305;-76
2022/03/01 01:11:54;;;;;;;18.88;16.30;;;;;;;-0.75;83.03;102758.84;1032016;28;20312;-75
2022/03/01 01:12:25;;;;;;;20.13;15.82;;;;;;;-0.79;82.68;102766.97;1031434;28;20674;-76
2022/03/01 01:12:57;;;;;;;20.65;17.42;;;;;;;-0.84;82.88;102763.78;1032516;28;20297;-75
2022/03/01 01:13:30;;;;;;;21.83;16.25;;;;;;;-0.78;83.03;102763.44;1040123;28;20299;-76
2022/03/01 01:14:01;;;;;;;20.60;16.45;;;;;;;-0.80;83.21;102754.84;1040428;28;20307;-75
2022/03/01 01:14:33;;;;;;;19.65;16.38;;;;;;;-0.76;83.29;102761.56;1039664;28;20307;-76
2022/03/01 01:15:06;;;;;;;19.38;16.52;;;;;;;-0.80;83.21;102760.91;1036012;28;20300;-76
2022/03/01 01:15:37;;;;;;;21.23;16.30;;;;;;;-0.79;83.34;102765.22;1030018;28;20302;-76
2022/03/01 01:16:09;;;;;;;20.23;17.00;;;;;;;-0.74;83.51;102767.53;1035596;28;20316;-75
2022/03/01 01:16:41;;;;;;;19.38;16.10;;;;;;;-0.77;83.11;102762.50;1039065;28;20296;-76
2022/03/01 01:17:12;;;;;;;17.63;15.77;;;;;;;-0.74;83.09;102765.75;1041577;28;20319;-76
2022/03/01 01:17:44;;;;;;;18.90;16.20;;;;;;;-0.77;82.91;102765.13;1043994;28;20291;-75
2022/03/01 01:18:16;;;;;;;19.75;15.32;;;;;;;-0.76;83.36;102762.41;1044061;28;20307;-75
2022/03/01 01:18:48;;;;;;;17.95;16.05;;;;;;;-0.73;82.84;102756.13;1039968;28;20327;-76
2022/03/01 01:19:19;;;;;;;20.90;16.92;;;;;;;-0.73;82.55;102756.13;1039856;28;20698;-76
2022/03/01 01:19:51;;;;;;;21.80;17.02;;;;;;;-0.60;82.69;102750.97;1036136;28;20308;-75
2022/03/01 01:20:23;;;;;;;18.90;16.40;;;;;;;-0.40;81.62;102747.94;1040468;28;20284;-75
2022/03/01 01:20:54;;;;;;;23.40;16.98;;;;;;;-0.27;81.15;102746.22;1039657;28;20311;-76
2022/03/01 01:22:39;;;;;;;21.63;16.88;;;;;;;-0.26;80.69;102742.66;1036334;28;20316;-75
2022/03/01 01:23:08;;;;;;;18.83;14.88;;;;;;;-0.26;80.34;102744.44;1043850;28;20343;-76
2022/03/01 01:23:41;;;;;;;20.33;16.73;;;;;;;-0.37;80.74;102742.50;1044282;28;20345;-76
2022/03/01 01:24:13;;;;;;;20.67;17.10;;;;;;;-0.37;80.92;102743.31;1043962;28;20369;-76
2022/03/01 01:24:45;;;;;;;21.52;15.85;;;;;;;-0.34;80.90;102742.28;1044104;28;20307;-76
2022/03/01 01:25:23;;;;;;;18.95;16.95;;;;;;;-0.42;81.13;102740.16;1043737;28;20440;-76
2022/03/01 01:25:54;;;;;;;20.63;16.67;;;;;;;-0.45;81.53;102745.59;1041715;28;20330;-76
2022/03/01 01:26:26;;;;;;;18.55;16.52;;;;;;;-0.47;81.18;102744.03;1039718;28;20320;-76
2022/03/01 01:26:57;;;;;;;26.67;16.48;;;;;;;-0.42;81.56;102737.56;1039446;28;20292;-76
2022/03/01 01:27:29;;;;;;;22.15;16.88;;;;;;;-0.45;81.39;102745.59;1040461;28;20295;-76
2022/03/01 01:28:01;;;;;;;25.92;17.25;;;;;;;-0.42;81.58;102740.16;1043918;28;20354;-75
2022/03/01 01:28:33;;;;;;;20.65;16.15;;;;;;;-0.43;81.20;102743.72;1039692;28;20307;-76
2022/03/01 01:29:05;;;;;;;20.77;15.80;;;;;;;-0.49;81.22;102741.50;1040267;28;20300;-76
2022/03/01 01:29:36;;;;;;;20.00;16.10;;;;;;;-0.46;81.61;102746.53;1043849;28;20299;-76
2022/03/01 01:30:17;;;;;;;20.25;16.30;;;;;;;-0.50;81.52;102745.06;1039671;28;20308;-76
2022/03/01 01:30:49;;;;;;;22.95;16.55;;;;;;;-0.50;81.81;102752.06;1039851;28;20296;-76
2022/03/01 01:31:21;;;;;;;19.52;16.15;;;;;;;-0.53;81.80;102753.13;1039783;28;20302;-76
2022/03/01 01:31:53;;;;;;;20.75;17.83;;;;;;;-0.45;81.85;102745.59;1041703;28;20649;-76
2022/03/01 01:32:25;;;;;;;21.27;17.20;;;;;;;-0.52;82.06;102741.72;1043934;28;20643;-76
2022/03/01 01:32:57;;;;;;;19.27;16.08;;;;;;;-0.39;82.09;102746.97;1043970;28;20299;-76
2022/03/01 01:33:28;;;;;;;21.83;16.10;;;;;;;-0.39;81.72;102739.97;1039639;28;20306;-76
2022/03/01 01:34:00;;;;;;;22.63;16.92;;;;;;;-0.45;81.81;102744.78;1036078;28;20664;-76
2022/03/01 01:34:32;;;;;;;18.27;16.00;;;;;;;-0.41;81.83;102741.84;1035793;28;20296;-76
2022/03/01 01:35:05;;;;;;;21.63;17.30;;;;;;;-0.27;81.13;102743.59;1036337;28;20301;-76
2022/03/01 01:35:37;;;;;;;22.10;17.55;;;;;;;-0.17;80.83;102734.19;1036402;28;20720;-76
2022/03/01 01:36:08;;;;;;;20.08;16.98;;;;;;;-0.16;80.45;102732.41;1036463;28;20303;-76
2022/03/01 01:36:40;;;;;;;22.45;17.05;;;;;;;-0.19;80.05;102725.59;1039773;28;20298;-76
2022/03/01 01:37:12;;;;;;;22.63;16.98;;;;;;;-0.06;80.10;102725.63;1036072;28;20304;-75
2022/03/01 01:37:44;;;;;;;23.80;16.98;;;;;;;-0.05;79.57;102720.28;1040202;28;20787;-76
2022/03/01 01:38:15;;;;;;;22.65;16.85;;;;;;;0.03;79.01;102719.81;1039702;28;20427;-75
2022/03/01 01:38:47;;;;;;;20.45;16.52;;;;;;;0.02;79.38;102718.13;1035969;28;20673;-76
2022/03/01 01:39:18;;;;;;;19.35;16.10;;;;;;;0.13;78.74;102710.38;1039390;28;20299;-76
2022/03/01 01:39:51;;;;;;;19.70;16.15;;;;;;;0.18;78.67;102713.53;1036133;28;20715;-76
2022/03/01 01:40:27;;;;;;;22.73;18.02;;;;;;;0.25;78.16;102709.56;1040163;28;20307;-76
2022/03/01 01:40:59;;;;;;;21.55;17.92;;;;;;;0.30;78.05;102712.72;1043542;28;20295;-75
2022/03/01 01:41:30;;;;;;;23.02;16.55;;;;;;;0.34;77.40;102702.03;1040815;28;20304;-76
2022/03/01 01:42:03;;;;;;;21.60;16.63;;;;;;;0.47;76.92;102703.69;1039936;28;20284;-76
2022/03/01 01:42:34;;;;;;;21.17;17.15;;;;;;;0.46;76.40;102694.16;1039601;28;20320;-76
2022/03/01 01:43:06;;;;;;;20.05;17.13;;;;;;;0.43;76.17;102690.91;1040050;28;20300;-77
2022/03/01 01:43:37;;;;;;;24.75;17.20;;;;;;;0.51;76.23;102693.84;1043907;28;20288;-76
2022/03/01 01:44:09;;;;;;;19.75;16.02;;;;;;;0.61;75.44;102687.03;1043677;28;20662;-76
2022/03/01 01:44:43;;;;;;;19.35;16.98;;;;;;;0.55;75.33;102692.72;1043746;28;20378;-76
2022/03/01 01:45:35;;;;;;;22.35;15.52;;;;;;;0.43;76.03;102691.75;1035751;28;20708;-76
2022/03/01 01:46:06;;;;;;;21.00;16.38;;;;;;;0.51;75.74;102685.97;1039080;28;20299;-76
2022/03/01 01:46:38;;;;;;;21.50;16.80;;;;;;;0.56;75.79;102686.53;1039761;28;20315;-75
2022/03/01 01:47:10;;;;;;;20.17;16.67;;;;;;;0.58;75.76;102698.56;1043194;28;20303;-76
2022/03/01 01:47:41;;;;;;;22.38;16.50;;;;;;;0.67;75.46;102688.38;1044048;28;20394;-76
2022/03/01 01:48:13;;;;;;;19.40;17.25;;;;;;;0.60;75.61;102687.97;1043835;28;20310;-77
2022/03/01 01:48:45;;;;;;;19.95;17.73;;;;;;;0.59;75.52;102696.78;1043731;28;20303;-76
2022/03/01 01:49:16;;;;;;;24.73;17.55;;;;;;;0.61;75.76;102703.59;1043873;28;20299;-76
2022/03/01 01:49:48;;;;;;;23.85;18.30;;;;;;;0.58;76.26;102702.97;1043593;28;20311;-76
2022/03/01 01:50:20;;;;;;;26.23;17.02;;;;;;;0.51;76.40;102704.31;1039692;28;20312;-76
2022/03/01 01:50:52;;;;;;;23.30;18.08;;;;;;;0.47;77.01;102702.84;1039677;28;20292;-76
2022/03/01 01:51:25;;;;;;;21.77;17.30;;;;;;;0.49;76.99;102708.84;1035488;28;20371;-76
2022/03/01 01:51:57;;;;;;;21.20;17.70;;;;;;;0.51;76.99;102706.94;1036073;28;20348;-76
2022/03/01 01:52:29;;;;;;;21.67;17.60;;;;;;;0.52;77.20;102706.00;1036304;28;20305;-76
2022/03/01 01:53:01;;;;;;;23.52;18.23;;;;;;;0.48;76.77;102700.13;1036488;28;20288;-75
2022/03/01 01:53:33;;;;;;;22.63;16.85;;;;;;;0.55;76.64;102701.41;1035470;28;20304;-75
2022/03/01 01:54:05;;;;;;;23.73;17.50;;;;;;;0.60;76.86;102706.34;1031886;28;20301;-76
2022/03/01 01:54:37;;;;;;;23.80;18.83;;;;;;;0.56;77.02;102707.50;1034704;28;20656;-76
2022/03/01 01:55:09;;;;;;;24.38;18.25;;;;;;;0.53;77.08;102712.91;1036929;28;20316;-76
2022/03/01 01:55:40;;;;;;;19.70;17.15;;;;;;;0.52;77.02;102708.63;1040129;28;20415;-76
2022/03/01 01:56:13;;;;;;;21.55;18.35;;;;;;;0.53;77.43;102716.38;1040509;28;20300;-76
2022/03/01 01:56:44;;;;;;;19.35;16.92;;;;;;;0.52;77.34;102716.50;1036712;28;20308;-76
2022/03/01 01:57:18;;;;;;;19.30;17.25;;;;;;;0.51;77.25;102720.06;1036531;28;20305;-75
2022/03/01 01:57:50;;;;;;;22.88;18.45;;;;;;;0.50;77.49;102721.00;1040117;28;20391;-76
2022/03/01 01:58:23;;;;;;;25.23;17.77;;;;;;;0.41;77.58;102719.84;1036820;28;20304;-76
2022/03/01 01:58:54;;;;;;;19.27;17.25;;;;;;;0.36;77.78;102721.09;1036590;28;20300;-76
2022/03/01 01:59:27;;;;;;;19.52;16.45;;;;;;;0.23;78.69;102719.28;1040238;28;20311;-75
2022/03/01 02:00:00;;;;;;;20.20;17.92;;;;;;;0.23;78.71;102726.31;1040320;28;20651;-75
2022/03/01 02:00:42;;;;;;;21.30;15.98;;;;;;;0.01;79.04;102728.72;1041549;28;20304;-75
2022/03/01 02:01:19;;;;;;;19.48;16.55;;;;;;;-0.03;79.43;102735.91;1044171;28;20303;-75
2022/03/01 02:01:50;;;;;;;21.30;17.00;;;;;;;0.00;79.50;102730.50;1040495;28;20296;-76
2022/03/01 02:02:24;;;;;;;21.58;17.15;;;;;;;0.05;79.50;102727.56;1040194;28;20378;-76
2022/03/01 02:02:56;;;;;;;18.92;16.60;;;;;;;0.05;79.39;102733.63;1036854;28;20323;-76
2022/03/01 02:03:29;;;;;;;17.88;15.40;;;;;;;0.01;80.00;102740.03;1041573;28;20303;-75
2022/03/01 02:04:01;;;;;;;24.25;17.70;;;;;;;-0.05;80.29;102736.00;1038015;28;20295;-76
2022/03/01 02:04:36;;;;;;;20.75;16.55;;;;;;;-0.03;80.08;102741.13;1036102;28;20297;-76
2022/03/01 02:05:09;;;;;;;22.40;17.20;;;;;;;-0.05;80.19;102748.25;1036251;28;20360;-76
2022/03/01 02:05:41;;;;;;;23.77;16.80;;;;;;;-0.07;80.45;102737.88;1032261;28;20312;-76
2022/03/01 02:06:12;;;;;;;22.73;17.63;;;;;;;-0.09;80.55;102744.16;1037198;28;20312;-75
2022/03/01 02:06:54;;;;;;;19.45;16.95;;;;;;;-0.14;81.13;102748.88;1036527;28;20308;-76
2022/03/01 02:07:25;;;;;;;25.63;17.55;;;;;;;-0.13;80.93;102743.53;1033960;28;20301;-75
2022/03/01 02:07:57;;;;;;;20.60;17.05;;;;;;;-0.24;80.83;102742.56;1032158;28;20309;-76
2022/03/01 02:08:31;;;;;;;18.48;16.67;;;;;;;-0.29;80.42;102745.44;1034439;28;20677;-75
2022/03/01 02:09:04;;;;;;;23.80;18.60;;;;;;;-0.29;80.66;102744.59;1031735;28;20306;-76
2022/03/01 02:09:35;;;;;;;21.67;17.48;;;;;;;-0.32;80.70;102745.66;1037283;28;20796;-75
2022/03/01 02:10:08;;;;;;;19.52;16.83;;;;;;;-0.31;80.45;102737.69;1036172;28;20304;-76
2022/03/01 02:10:39;;;;;;;23.40;17.13;;;;;;;-0.25;80.75;102738.25;1037139;28;20923;-75
2022/03/01 02:11:11;;;;;;;21.45;17.38;;;;;;;-0.25;80.57;102740.88;1036691;28;20297;-76
2022/03/01 02:11:42;;;;;;;21.98;17.88;;;;;;;-0.24;80.68;102737.31;1040562;28;20311;-75
2022/03/01 02:12:14;;;;;;;20.02;17.58;;;;;;;-0.22;80.87;102740.69;1040414;28;20636;-75
2022/03/01 02:12:46;;;;;;;19.60;16.95;;;;;;;-0.25;80.79;102743.50;1040730;28;20300;-76
2022/03/01 02:13:17;;;;;;;19.40;17.10;;;;;;;-0.22;80.98;102741.53;1044250;28;20303;-75
2022/03/01 02:13:49;;;;;;;18.58;16.45;;;;;;;-0.24;81.01;102747.78;1032537;28;20665;-75
2022/03/01 02:14:20;;;;;;;20.52;16.95;;;;;;;-0.27;80.72;102742.72;1036331;28;20327;-76
2022/03/01 02:14:52;;;;;;;20.63;17.05;;;;;;;-0.30;81.39;102749.00;1035992;28;20297;-75
2022/03/01 02:15:24;;;;;;;22.42;15.18;;;;;;;-0.33;81.33;102743.97;1033845;28;20789;-76
2022/03/01 02:15:56;;;;;;;21.92;18.33;;;;;;;-0.28;81.49;102747.13;1044539;28;20303;-75
2022/03/01 02:16:28;;;;;;;18.98;15.30;;;;;;;-0.31;81.44;102748.16;1040185;28;20327;-76
2022/03/01 02:17:00;;;;;;;17.45;15.50;;;;;;;-0.33;81.51;102750.03;1040652;28;20954;-75
2022/03/01 02:17:32;;;;;;;21.65;17.42;;;;;;;-0.34;81.54;102753.59;1044479;28;20296;-76
2022/03/01 02:18:04;;;;;;;21.13;17.48;;;;;;;-0.34;81.78;102750.97;1036781;28;20668;-76
2022/03/01 02:18:37;;;;;;;20.98;17.80;;;;;;;-0.28;82.05;102751.53;1036080;28;20312;-75
2022/03/01 02:19:11;;;;;;;19.60;17.50;;;;;;;-0.33;82.06;102759.69;1036173;28;20325;-75
2022/03/01 02:19:50;;;;;;;18.17;16.20;;;;;;;-0.46;82.26;102754.41;1035134;28;20306;-76
2022/03/01 02:20:23;;;;;;;21.67;17.23;;;;;;;-0.39;82.75;102760.91;1040151;28;20303;-75
2022/03/01 02:20:54;;;;;;;19.40;16.35;;;;;;;-0.39;83.24;102754.84;1040150;28;20857;-76
2022/03/01 02:21:26;;;;;;;22.52;16.48;;;;;;;-0.37;83.44;102759.03;1041862;28;20343;-76
2022/03/01 02:21:58;;;;;;;21.50;17.63;;;;;;;-0.33;83.10;102762.28;1044374;28;20317;-76
2022/03/01 02:22:33;;;;;;;19.90;16.67;;;;;;;-0.40;83.45;102764.47;1045089;28;20318;-76
2022/03/01 02:23:05;;;;;;;21.10;17.42;;;;;;;-0.43;83.45;102764.66;1044347;28;20318;-76
2022/03/01 02:23:37;;;;;;;20.50;16.15;;;;;;;-0.47;83.39;102763.19;1044298;28;20810;-76
2022/03/01 02:24:09;;;;;;;20.35;17.23;;;;;;;-0.36;83.48;102765.94;1040396;28;20292;-76
2022/03/01 02:24:44;;;;;;;21.60;18.17;;;;;;;-0.53;83.75;102760.97;1036565;28;20402;-75
2022/03/01 02:25:16;;;;;;;19.40;16.70;;;;;;;-0.48;83.57;102751.03;1035966;28;20296;-76
2022/03/01 02:25:47;;;;;;;20.13;17.42;;;;;;;-0.64;83.40;102753.78;1036384;28;20874;-76
2022/03/01 02:26:19;;;;;;;20.95;17.05;;;;;;;-0.70;83.47;102751.53;1037530;28;20316;-75
2022/03/01 02:26:55;;;;;;;21.40;16.25;;;;;;;-0.56;83.51;102755.06;1044406;28;20311;-75
2022/03/01 02:27:27;;;;;;;20.48;17.27;;;;;;;-0.60;83.26;102751.78;1044062;28;20306;-76
2022/03/01 02:27:59;;;;;;;21.70;17.42;;;;;;;-0.59;83.47;102756.09;1036327;28;20366;-75